createdAt,value
2022-10-30T00:02:37.278Z,98958.38
2022-10-30T00:05:21.178Z,98962.22
2022-10-30T00:08:10.088Z,98954.63
2022-10-30T00:11:00.107Z,98962.22
2022-10-30T00:13:45.823Z,98965.75
2022-10-30T00:16:34.198Z,98958.16
2022-10-30T00:19:29.060Z,98962.22
2022-10-30T00:22:25.251Z,98964.41
2022-10-30T00:25:14.481Z,98964.16
2022-10-30T00:27:56.205Z,98966.88
2022-10-30T00:30:46.092Z,98973.16
2022-10-30T00:33:28.486Z,98974.53
2022-10-30T00:36:19.188Z,98967.75
2022-10-30T00:39:01.581Z,98977.00
2022-10-30T00:41:50.114Z,98978.59
2022-10-30T00:44:55.460Z,98977.25
2022-10-30T00:47:52.096Z,98978.06
2022-10-30T00:50:42.627Z,98981.38
2022-10-30T00:53:31.104Z,98978.66
2022-10-30T00:56:16.924Z,98982.19
2022-10-30T00:59:10.105Z,98984.09
2022-10-30T01:02:02.272Z,98986.28
2022-10-30T01:04:53.489Z,98981.09
2022-10-30T01:07:35.146Z,98986.28
2022-10-30T01:10:25.548Z,98993.94
2022-10-30T01:13:10.315Z,99002.41
2022-10-30T01:16:42.496Z,99002.13
2022-10-30T01:19:38.203Z,99000.47
2022-10-30T01:22:48.496Z,98999.91
2022-10-30T01:25:33.208Z,99001.56
2022-10-30T01:28:54.091Z,99015.22
2022-10-30T01:31:46.181Z,99016.03
2022-10-30T01:34:57.266Z,99013.03
2022-10-30T01:37:54.263Z,99011.38
2022-10-30T01:40:44.443Z,99015.19
2022-10-30T01:43:26.101Z,99020.63
2022-10-30T01:46:50.531Z,99026.06
2022-10-30T01:49:53.112Z,99024.72
2022-10-30T01:52:57.679Z,99027.75
2022-10-30T01:55:51.110Z,99026.63
2022-10-30T01:58:49.490Z,99034.25
2022-10-30T02:01:33.209Z,99038.63
2022-10-30T02:04:22.472Z,99030.97
2022-10-30T02:07:05.088Z,99036.38
2022-10-30T02:09:55.381Z,99035.50
2022-10-30T02:12:45.131Z,99023.50
2022-10-30T02:15:34.207Z,99034.31
2022-10-30T02:18:23.177Z,99031.84
2022-10-30T02:21:12.447Z,99029.31
2022-10-30T02:23:55.194Z,99036.56
2022-10-30T02:26:44.084Z,99039.00
2022-10-30T02:29:26.549Z,99040.38
2022-10-30T02:32:15.390Z,99048.50
2022-10-30T02:34:57.461Z,99043.53
2022-10-30T02:37:47.175Z,99054.34
2022-10-30T02:40:29.440Z,99055.28
2022-10-30T02:43:18.090Z,99058.59
2022-10-30T02:46:08.229Z,99061.78
2022-10-30T02:48:56.461Z,99063.91
2022-10-30T02:51:42.274Z,99071.13
2022-10-30T02:54:30.468Z,99072.19
2022-10-30T02:57:13.240Z,99074.16
2022-10-30T02:59:55.374Z,99082.72
2022-10-30T03:02:45.210Z,99083.50
2022-10-30T03:05:28.517Z,99083.03
2022-10-30T03:08:17.093Z,99088.28
2022-10-30T03:11:07.768Z,99091.63
2022-10-30T03:13:57.200Z,99080.22
2022-10-30T03:16:46.173Z,99081.81
2022-10-30T03:19:28.427Z,99084.69
2022-10-30T03:22:17.166Z,99091.38
2022-10-30T03:24:59.528Z,99085.00
2022-10-30T03:27:49.082Z,99091.28
2022-10-30T03:30:38.176Z,99100.38
2022-10-30T03:33:20.351Z,99092.16
2022-10-30T03:36:09.173Z,99104.00
2022-10-30T03:38:58.161Z,99102.13
2022-10-30T03:41:41.482Z,99108.19
2022-10-30T03:44:30.163Z,99100.88
2022-10-30T03:50:06.167Z,99108.13
2022-10-30T03:52:48.449Z,99102.47
2022-10-30T03:55:37.166Z,99107.53
2022-10-30T03:58:20.449Z,99116.22
2022-10-30T04:01:15.323Z,99119.25
2022-10-30T04:04:03.458Z,99112.47
2022-10-30T04:06:52.179Z,99113.41
2022-10-30T04:09:34.582Z,99112.03
2022-10-30T04:12:23.160Z,99116.22
2022-10-30T04:15:05.518Z,99107.34
2022-10-30T04:17:59.598Z,99101.72
2022-10-30T04:20:50.450Z,99102.72
2022-10-30T04:23:32.190Z,99100.53
2022-10-30T04:26:21.137Z,99094.22
2022-10-30T04:29:10.198Z,99103.66
2022-10-30T04:31:59.507Z,99112.56
2022-10-30T04:34:42.087Z,99113.88
2022-10-30T04:37:30.434Z,99108.31
2022-10-30T04:40:13.091Z,99102.25
2022-10-30T04:43:04.129Z,99104.31
2022-10-30T04:45:55.195Z,99101.34
2022-10-30T04:48:44.567Z,99100.13
2022-10-30T04:51:29.169Z,99098.41
2022-10-30T04:54:23.121Z,99101.81
2022-10-30T04:57:06.153Z,99100.22
2022-10-30T04:59:57.155Z,99104.56
2022-10-30T05:05:33.184Z,99102.69
2022-10-30T05:08:16.491Z,99102.56
2022-10-30T05:11:05.172Z,99093.91
2022-10-30T05:13:54.162Z,99090.66
2022-10-30T05:16:36.563Z,99088.81
2022-10-30T05:19:25.289Z,99082.94
2022-10-30T05:22:21.024Z,99089.97
2022-10-30T05:25:10.182Z,99089.97
2022-10-30T05:27:53.446Z,99094.06
2022-10-30T05:30:44.254Z,99089.44
2022-10-30T05:33:44.884Z,99088.72
2022-10-30T05:36:35.149Z,99085.81
2022-10-30T05:39:18.487Z,99081.84
2022-10-30T05:42:11.227Z,99077.88
2022-10-30T05:45:00.959Z,99077.53
2022-10-30T05:47:51.195Z,99074.41
2022-10-30T05:50:34.449Z,99077.94
2022-10-30T05:53:33.163Z,99065.72
2022-10-30T05:56:23.060Z,99061.72
2022-10-30T05:59:12.470Z,99068.06
2022-10-30T06:01:55.147Z,99061.91
2022-10-30T06:04:37.392Z,99062.53
2022-10-30T06:07:28.087Z,99062.16
2022-10-30T06:10:24.249Z,99051.28
2022-10-30T06:13:22.313Z,99056.38
2022-10-30T06:19:39.231Z,99042.63
2022-10-30T06:23:02.644Z,99041.09
2022-10-30T06:25:58.156Z,99047.94
2022-10-30T06:28:55.138Z,99037.19
2022-10-30T06:31:38.616Z,99027.25
2022-10-30T06:34:28.179Z,99022.75
2022-10-30T06:37:10.548Z,99024.00
2022-10-30T06:40:00.202Z,99023.19
2022-10-30T06:43:01.793Z,99018.81
2022-10-30T06:46:00.296Z,99016.69
2022-10-30T06:48:44.464Z,99010.38
2022-10-30T06:51:34.168Z,99008.31
2022-10-30T06:54:16.615Z,99004.81
2022-10-30T06:57:28.089Z,98993.22
2022-10-30T07:00:41.287Z,98987.81
2022-10-30T07:03:53.201Z,98992.44
2022-10-30T07:06:42.070Z,98982.75
2022-10-30T07:09:26.443Z,98970.91
2022-10-30T07:12:15.198Z,98973.13
2022-10-30T07:15:26.166Z,98966.28
2022-10-30T07:18:23.464Z,98961.66
2022-10-30T07:21:14.208Z,98960.41
2022-10-30T07:24:03.204Z,98956.34
2022-10-30T07:27:11.302Z,98942.44
2022-10-30T07:30:06.089Z,98948.25
2022-10-30T07:33:17.371Z,98944.81
2022-10-30T07:36:24.179Z,98934.97
2022-10-30T07:39:24.365Z,98929.25
2022-10-30T07:42:21.194Z,98926.00
2022-10-30T07:45:22.302Z,98921.50
2022-10-30T07:48:29.097Z,98918.09
2022-10-30T07:51:37.233Z,98912.78
2022-10-30T07:54:21.525Z,98915.41
2022-10-30T07:57:12.101Z,98909.19
2022-10-30T08:00:15.502Z,98897.63
2022-10-30T08:03:14.228Z,98899.72
2022-10-30T08:06:04.453Z,98889.53
2022-10-30T08:08:54.083Z,98894.56
2022-10-30T08:11:37.463Z,98893.75
2022-10-30T08:14:26.253Z,98883.41
2022-10-30T08:17:11.458Z,98880.28
2022-10-30T08:20:01.222Z,98882.28
2022-10-30T08:22:55.730Z,98872.13
2022-10-30T08:25:39.178Z,98866.66
2022-10-30T08:28:31.665Z,98872.00
2022-10-30T08:31:18.420Z,98867.38
2022-10-30T08:34:19.217Z,98866.44
2022-10-30T08:37:03.511Z,98864.16
2022-10-30T08:39:52.203Z,98857.88
2022-10-30T08:42:48.442Z,98847.69
2022-10-30T08:45:38.146Z,98849.06
2022-10-30T08:48:31.086Z,98840.75
2022-10-30T08:51:20.468Z,98837.25
2022-10-30T08:54:02.165Z,98836.59
2022-10-30T08:56:50.448Z,98830.94
2022-10-30T08:59:33.189Z,98829.72
2022-10-30T09:02:21.419Z,98827.31
2022-10-30T09:05:28.085Z,98824.06
2022-10-30T09:08:36.440Z,98817.13
2022-10-30T09:11:45.152Z,98813.94
2022-10-30T09:14:33.487Z,98809.03
2022-10-30T09:17:17.080Z,98801.72
2022-10-30T09:19:59.907Z,98802.38
2022-10-30T09:22:56.487Z,98807.81
2022-10-30T09:25:51.162Z,98803.09
2022-10-30T09:29:00.173Z,98796.63
2022-10-30T09:31:48.634Z,98802.34
2022-10-30T09:34:41.228Z,98793.16
2022-10-30T09:37:36.104Z,98798.00
2022-10-30T09:40:58.874Z,98800.34
2022-10-30T09:44:26.061Z,98799.66
2022-10-30T09:47:23.166Z,98790.56
2022-10-30T09:50:14.787Z,98801.53
2022-10-30T09:53:20.177Z,98795.97
2022-10-30T09:56:11.486Z,98790.44
2022-10-30T09:59:13.241Z,98790.25
2022-10-30T10:02:01.559Z,98788.84
2022-10-30T10:04:56.200Z,98783.97
2022-10-30T10:08:03.560Z,98780.97
2022-10-30T10:11:21.238Z,98778.72
2022-10-30T10:14:10.596Z,98777.81
2022-10-30T10:17:02.184Z,98772.25
2022-10-30T10:19:59.076Z,98777.34
2022-10-30T10:23:04.139Z,98762.22
2022-10-30T10:26:00.160Z,98770.66
2022-10-30T10:29:00.512Z,98767.19
2022-10-30T10:32:19.158Z,98765.03
2022-10-30T10:35:19.443Z,98769.75
2022-10-30T10:38:26.176Z,98760.28
2022-10-30T10:41:12.484Z,98761.84
2022-10-30T10:44:25.097Z,98768.75
2022-10-30T10:47:40.124Z,98761.13
2022-10-30T10:50:48.648Z,98762.00
2022-10-30T10:53:43.173Z,98763.34
2022-10-30T10:56:33.292Z,98753.88
2022-10-30T10:59:35.083Z,98752.66
2022-10-30T11:02:39.268Z,98746.63
2022-10-30T11:05:46.085Z,98751.09
2022-10-30T11:08:41.072Z,98748.13
2022-10-30T11:11:23.510Z,98754.00
2022-10-30T11:14:33.076Z,98752.00
2022-10-30T11:18:03.406Z,98751.34
2022-10-30T11:21:10.991Z,98759.69
2022-10-30T11:24:01.117Z,98753.88
2022-10-30T11:26:43.465Z,98756.72
2022-10-30T11:29:37.145Z,98749.13
2022-10-30T11:32:27.610Z,98751.63
2022-10-30T11:35:16.073Z,98758.13
2022-10-30T11:38:19.426Z,98756.09
2022-10-30T11:41:10.080Z,98760.16
2022-10-30T11:43:54.476Z,98754.31
2022-10-30T11:46:44.071Z,98764.13
2022-10-30T11:50:06.218Z,98758.00
2022-10-30T11:53:03.489Z,98759.31
2022-10-30T11:55:54.149Z,98758.19
2022-10-30T11:58:39.918Z,98760.34
2022-10-30T12:01:50.140Z,98758.56
2022-10-30T12:04:39.414Z,98761.63
2022-10-30T12:07:37.068Z,98758.22
2022-10-30T12:10:30.576Z,98763.28
2022-10-30T12:13:20.152Z,98766.38
2022-10-30T12:16:21.659Z,98760.69
2022-10-30T12:19:17.131Z,98762.63
2022-10-30T12:22:05.268Z,98759.38
2022-10-30T12:24:59.057Z,98764.75
2022-10-30T12:27:48.082Z,98774.09
2022-10-30T12:30:30.418Z,98776.19
2022-10-30T12:33:33.177Z,98775.88
2022-10-30T12:36:31.152Z,98776.66
2022-10-30T12:39:31.536Z,98780.88
2022-10-30T12:42:33.153Z,98776.81
2022-10-30T12:45:31.144Z,98783.75
2022-10-30T12:48:16.814Z,98783.25
2022-10-30T12:51:29.169Z,98784.25
2022-10-30T12:54:40.477Z,98791.03
2022-10-30T12:57:45.145Z,98798.75
2022-10-30T13:00:27.591Z,98806.00
2022-10-30T13:03:46.153Z,98799.69
2022-10-30T13:06:35.592Z,98808.09
2022-10-30T13:09:34.152Z,98808.09
2022-10-30T13:12:33.136Z,98811.44
2022-10-30T13:15:37.149Z,98820.97
2022-10-30T13:18:22.597Z,98820.97
2022-10-30T13:21:28.089Z,98833.19
2022-10-30T13:24:23.816Z,98836.78
2022-10-30T13:27:16.149Z,98839.16
2022-10-30T13:30:19.436Z,98843.19
2022-10-30T13:33:19.176Z,98848.50
2022-10-30T13:36:09.814Z,98849.91
2022-10-30T13:39:05.161Z,98858.53
2022-10-30T13:42:17.934Z,98851.44
2022-10-30T13:45:29.156Z,98855.56
2022-10-30T13:48:40.182Z,98865.56
2022-10-30T13:51:50.598Z,98865.63
2022-10-30T13:55:08.064Z,98870.06
2022-10-30T13:58:09.800Z,98872.44
2022-10-30T14:01:20.246Z,98871.44
2022-10-30T14:04:14.364Z,98877.72
2022-10-30T14:07:23.165Z,98879.22
2022-10-30T14:10:48.113Z,98883.88
2022-10-30T14:13:41.139Z,98891.66
2022-10-30T14:16:32.296Z,98887.66
2022-10-30T14:19:23.152Z,98888.56
2022-10-30T14:22:17.985Z,98887.38
2022-10-30T14:25:08.350Z,98893.06
2022-10-30T14:27:57.482Z,98893.91
2022-10-30T14:30:46.205Z,98897.56
2022-10-30T14:33:49.969Z,98889.00
2022-10-30T14:36:48.082Z,98885.56
2022-10-30T14:39:44.161Z,98889.03
2022-10-30T14:42:32.169Z,98892.16
2022-10-30T14:45:57.149Z,98889.66
2022-10-30T14:49:03.653Z,98892.38
2022-10-30T14:52:14.097Z,98883.66
2022-10-30T14:55:11.116Z,98896.94
2022-10-30T14:57:55.679Z,98893.69
2022-10-30T15:00:45.063Z,98893.78
2022-10-30T15:03:56.433Z,98888.63
2022-10-30T15:07:12.020Z,98887.28
2022-10-30T15:10:21.109Z,98897.97
2022-10-30T15:13:18.128Z,98898.38
2022-10-30T15:16:23.160Z,98901.53
2022-10-30T15:19:15.535Z,98909.97
2022-10-30T15:22:01.134Z,98906.94
2022-10-30T15:24:43.594Z,98914.25
2022-10-30T15:27:35.126Z,98911.19
2022-10-30T15:30:30.076Z,98913.44
2022-10-30T15:33:32.067Z,98918.09
2022-10-30T15:36:39.147Z,98922.38
2022-10-30T15:39:21.368Z,98912.59
2022-10-30T15:42:14.057Z,98915.03
2022-10-30T15:45:02.452Z,98919.41
2022-10-30T15:47:45.679Z,98923.34
2022-10-30T15:50:35.067Z,98933.94
2022-10-30T15:53:28.434Z,98928.25
2022-10-30T15:56:29.064Z,98925.66
2022-10-30T15:59:21.131Z,98924.78
2022-10-30T16:02:03.703Z,98924.97
2022-10-30T16:04:53.156Z,98924.03
2022-10-30T16:07:35.556Z,98933.72
2022-10-30T16:10:25.162Z,98937.06
2022-10-30T16:13:07.532Z,98930.34
2022-10-30T16:15:57.150Z,98931.66
2022-10-30T16:18:40.557Z,98934.78
2022-10-30T16:21:34.144Z,98943.59
2022-10-30T16:24:26.109Z,98943.06
2022-10-30T16:27:26.627Z,98952.22
2022-10-30T16:30:30.237Z,98946.94
2022-10-30T16:33:20.545Z,98953.03
2022-10-30T16:36:04.090Z,98949.03
2022-10-30T16:38:57.073Z,98946.06
2022-10-30T16:41:41.537Z,98939.84
2022-10-30T16:44:44.154Z,98944.97
2022-10-30T16:47:33.045Z,98939.34
2022-10-30T16:50:25.145Z,98937.72
2022-10-30T16:53:44.120Z,98953.22
2022-10-30T16:56:32.835Z,98955.44
2022-10-30T16:59:46.115Z,98951.28
2022-10-30T17:02:43.612Z,98952.94
2022-10-30T17:05:45.032Z,98954.31
2022-10-30T17:09:04.109Z,98951.34
2022-10-30T17:11:49.708Z,98954.38
2022-10-30T17:14:38.117Z,98958.94
2022-10-30T17:17:38.547Z,98959.00
2022-10-30T17:20:46.164Z,98955.75
2022-10-30T17:23:35.109Z,98959.34
2022-10-30T17:26:27.057Z,98953.69
2022-10-30T17:30:00.212Z,98953.69
2022-10-30T17:32:52.444Z,98951.44
2022-10-30T17:35:35.021Z,98956.72
2022-10-30T17:38:17.513Z,98959.16
2022-10-30T17:41:06.169Z,98960.19
2022-10-30T17:44:02.570Z,98955.75
2022-10-30T17:46:45.206Z,98964.63
2022-10-30T17:49:37.047Z,98952.38
2022-10-30T17:52:25.861Z,98957.81
2022-10-30T17:55:34.164Z,98954.22
2022-10-30T17:58:16.538Z,98963.84
2022-10-30T18:01:06.330Z,98961.19
2022-10-30T18:03:48.464Z,98956.50
2022-10-30T18:06:37.206Z,98955.75
2022-10-30T18:09:20.636Z,98960.25
2022-10-30T18:12:09.588Z,98951.38
2022-10-30T18:14:52.579Z,98949.44
2022-10-30T18:17:41.166Z,98942.66
2022-10-30T18:20:23.480Z,98940.41
2022-10-30T18:23:31.467Z,98940.03
2022-10-30T18:26:15.761Z,98941.59
2022-10-30T18:29:05.038Z,98936.03
2022-10-30T18:31:54.727Z,98932.25
2022-10-30T18:34:36.173Z,98928.00
2022-10-30T18:37:25.588Z,98933.19
2022-10-30T18:40:07.071Z,98928.28
2022-10-30T18:42:49.638Z,98929.56
2022-10-30T18:45:51.122Z,98927.06
2022-10-30T18:48:40.083Z,98926.91
2022-10-30T18:51:40.151Z,98917.72
2022-10-30T18:54:22.383Z,98921.16
2022-10-30T18:57:11.046Z,98923.34
2022-10-30T19:00:01.829Z,98919.22
2022-10-30T19:02:45.141Z,98918.53
2022-10-30T19:05:35.346Z,98908.03
2022-10-30T19:08:25.022Z,98910.59
2022-10-30T19:11:07.867Z,98917.56
2022-10-30T19:13:57.114Z,98904.41
2022-10-30T19:16:46.032Z,98908.78
2022-10-30T19:19:35.039Z,98908.25
2022-10-30T19:22:17.642Z,98895.16
2022-10-30T19:25:06.069Z,98903.22
2022-10-30T19:27:55.424Z,98896.84
2022-10-30T19:30:38.215Z,98902.59
2022-10-30T19:33:31.554Z,98902.75
2022-10-30T19:36:14.207Z,98904.16
2022-10-30T19:38:57.136Z,98908.28
2022-10-30T19:41:47.204Z,98904.22
2022-10-30T19:44:36.428Z,98911.06
2022-10-30T19:47:19.128Z,98904.50
2022-10-30T19:50:08.037Z,98901.69
2022-10-30T19:52:50.535Z,98902.59
2022-10-30T19:55:42.189Z,98900.41
2022-10-30T19:58:26.134Z,98898.34
2022-10-30T20:01:15.388Z,98894.72
2022-10-30T20:03:57.426Z,98893.44
2022-10-30T20:06:46.178Z,98883.03
2022-10-30T20:09:29.469Z,98884.72
2022-10-30T20:12:18.187Z,98883.66
2022-10-30T20:15:00.403Z,98884.47
2022-10-30T20:17:49.136Z,98880.94
2022-10-30T20:20:37.440Z,98883.44
2022-10-30T20:23:35.191Z,98875.50
2022-10-30T20:26:39.439Z,98877.03
2022-10-30T20:29:28.036Z,98871.09
2022-10-30T20:32:23.947Z,98872.53
2022-10-30T20:35:13.106Z,98877.13
2022-10-30T20:38:17.090Z,98874.59
2022-10-30T20:41:01.185Z,98873.53
2022-10-30T20:43:52.138Z,98863.41
2022-10-30T20:46:40.407Z,98866.41
2022-10-30T20:49:23.115Z,98869.25
2022-10-30T20:52:05.425Z,98869.97
2022-10-30T20:54:54.149Z,98871.41
2022-10-30T21:00:30.029Z,98871.03
2022-10-30T21:03:19.424Z,98867.88
2022-10-30T21:06:07.110Z,98861.50
2022-10-30T21:08:49.303Z,98873.38
2022-10-30T21:11:38.100Z,98864.47
2022-10-30T21:14:26.412Z,98878.59
2022-10-30T21:17:09.097Z,98871.16
2022-10-30T21:19:51.280Z,98873.47
2022-10-30T21:22:40.432Z,98880.25
2022-10-30T21:25:28.441Z,98880.88
2022-10-30T21:28:11.165Z,98880.34
2022-10-30T21:31:05.945Z,98880.91
2022-10-30T21:34:01.151Z,98879.19
2022-10-30T21:36:43.418Z,98876.97
2022-10-30T21:39:32.011Z,98876.78
2022-10-30T21:42:20.424Z,98869.97
2022-10-30T21:45:03.115Z,98864.03
2022-10-30T21:47:51.402Z,98866.19
2022-10-30T21:50:33.144Z,98865.13
2022-10-30T21:53:21.380Z,98865.63
2022-10-30T21:56:04.160Z,98869.50
2022-10-30T21:58:46.742Z,98872.25
2022-10-30T22:01:42.078Z,98861.88
2022-10-30T22:04:31.702Z,98870.56
2022-10-30T22:07:13.014Z,98864.59
2022-10-30T22:10:01.406Z,98865.16
2022-10-30T22:12:43.083Z,98860.53
2022-10-30T22:15:32.002Z,98859.75
2022-10-30T22:18:21.096Z,98859.69
2022-10-30T22:21:16.009Z,98862.50
2022-10-30T22:23:58.437Z,98859.75
2022-10-30T22:26:47.015Z,98855.41
2022-10-30T22:29:36.113Z,98852.41
2022-10-30T22:32:24.991Z,98853.16
2022-10-30T22:35:14.097Z,98843.81
2022-10-30T22:38:05.995Z,98854.16
2022-10-30T22:40:48.387Z,98848.44
2022-10-30T22:43:37.066Z,98848.69
2022-10-30T22:46:20.392Z,98845.13
2022-10-30T22:49:09.003Z,98842.72
2022-10-30T22:51:58.133Z,98837.84
2022-10-30T22:54:46.386Z,98848.19
2022-10-30T22:57:28.149Z,98840.25
2022-10-30T23:00:19.236Z,98846.25
2022-10-30T23:03:02.689Z,98838.28
2022-10-30T23:05:45.258Z,98845.63
2022-10-30T23:08:34.015Z,98844.31
2022-10-30T23:11:23.974Z,98841.63
2022-10-30T23:14:06.372Z,98838.97
2022-10-30T23:16:56.002Z,98842.22
2022-10-30T23:19:38.393Z,98840.56
2022-10-30T23:22:27.137Z,98843.31
2022-10-30T23:25:09.400Z,98835.69
2022-10-30T23:27:58.658Z,98843.81
2022-10-30T23:30:42.443Z,98849.66
2022-10-30T23:33:31.102Z,98858.63
2022-10-30T23:36:14.372Z,98859.97
2022-10-30T23:39:08.034Z,98858.69
2022-10-30T23:41:58.001Z,98855.72
2022-10-30T23:44:40.277Z,98860.94
2022-10-30T23:47:28.996Z,98854.44
2022-10-30T23:50:18.608Z,98854.50
2022-10-30T23:53:00.081Z,98854.81
2022-10-30T23:55:42.255Z,98858.31
2022-10-30T23:58:30.993Z,98863.44
